Crane Gaia — 3FXX2 — position and weather

sailwx.info

Track history (hours):
 
Tides and Currents Weather Stations Pressure Air Temp Water Temp Dewpoint Dewpoint Depression Visibility Wind Speed Wind Dir Waves Ship Positions

Crane Gaia

Last reported at 2017-Jul-25 15:37 UTC. Time now 2017-Aug-19 20:35 UTC.
Position N 31°33' E 123°52'.
Warning: this ship's position is 25 days out of date.

Length 115 m; draft 5.4 m.

Type: Tanker. MMSI: 352461000.

Date/timePositionNaut miles runAvg speedWind from/ knotsBaromVisibWave heightAir tempDewpointWater temp
2017-Jul-25 15:37N 31°33' E 123°52'212.9
2017-Jul-25 15:30N 31°32' E 123°50'612.5
2017-Jul-25 15:00N 31°29' E 123°44'1212.0
2017-Jul-25 14:00N 31°22' E 123°32'712.3
2017-Jul-25 13:28N 31°18' E 123°26'511.9
2017-Jul-25 13:00N 31°15' E 123°21'612.0
2017-Jul-25 12:30N 31°12' E 123°15'612.5
2017-Jul-25 12:00N 31°08' E 123°09'713.1
2017-Jul-25 11:30N 31°04' E 123°03'613.0
2017-Jul-25 11:00N 31°01' E 122°57'612.8
2017-Jul-25 10:30N 30°57' E 122°51'713.7
2017-Jul-25 10:00N 30°55' E 122°43'713.3
2017-Jul-25 09:30N 30°53' E 122°36'714.7
2017-Jul-25 09:00N 30°51' E 122°27'1113.2
2017-Jul-25 08:11N 30°45' E 122°17'1412.9
2017-Jul-25 07:04N 30°32' E 122°09'415.5
2017-Jul-25 06:50N 30°32' E 122°05'515.0
2017-Jul-25 06:30N 30°31' E 121°59'1014.0
2017-Jul-25 05:49N 30°30' E 121°48'412.9
2017-Jul-25 05:28N 30°29' E 121°43'611.4
2017-Jul-25 04:59N 30°30' E 121°37'510.5
2017-Jul-25 04:28N 30°32' E 121°31'15 1.8
2017-Jul-24 20:15N 30°46' E 121°27'0 0.0
2017-Jul-24 19:45N 30°46' E 121°27'0 0.0
2017-Jul-24 19:21N 30°46' E 121°27'0 0.0
2017-Jul-24 18:45N 30°46' E 121°27'0 0.0
2017-Jul-24 18:18N 30°46' E 121°27'0 0.0
2017-Jul-24 17:57N 30°46' E 121°27'0 0.0
2017-Jul-24 16:21N 30°46' E 121°27'1 0.1
2017-Jul-24 01:13N 30°45' E 121°27'310.2
2017-Jul-24 00:57N 30°43' E 121°28'510.9
2017-Jul-24 00:29N 30°39' E 121°23'4 8.1
2017-Jul-24 00:00N 30°36' E 121°21'5 9.8
2017-Jul-23 23:30N 30°33' E 121°26'5 9.8
2017-Jul-23 23:00N 30°32' E 121°31'510.6
2017-Jul-23 22:30N 30°31' E 121°37'611.1
2017-Jul-23 22:00N 30°30' E 121°44'511.1
2017-Jul-23 21:30N 30°31' E 121°50'510.4
2017-Jul-23 21:00N 30°31' E 121°56'510.1
2017-Jul-23 20:28N 30°32' E 122°02'5 9.7
2017-Jul-23 20:00N 30°33' E 122°07'5 9.0
2017-Jul-23 19:28N 30°35' E 122°12'612.4
2017-Jul-23 19:00N 30°41' E 122°14'612.4
2017-Jul-23 18:30N 30°46' E 122°17'611.2
2017-Jul-23 18:00N 30°51' E 122°21'611.0
2017-Jul-23 17:30N 30°53' E 122°27'510.5
2017-Jul-23 17:00N 30°56' E 122°31'510.3
2017-Jul-23 16:30N 31°00' E 122°27'713.8
2017-Jul-23 16:00N 31°02' E 122°19'612.4
2017-Jul-23 15:30N 31°03' E 122°12'611.8
2017-Jul-23 15:00N 31°04' E 122°06'510.5
2017-Jul-23 14:30N 31°05' E 121°60'5 9.8
2017-Jul-23 14:00N 31°08' E 121°55'510.1
2017-Jul-23 13:30N 31°11' E 121°50'611.6
2017-Jul-23 13:00N 31°15' E 121°46'612.4
2017-Jul-23 12:30N 31°20' E 121°41'611.6
2017-Jul-23 12:00N 31°23' E 121°35'611.3
2017-Jul-23 11:30N 31°26' E 121°30'611.0
2017-Jul-23 11:00N 31°30' E 121°25'611.6
2017-Jul-23 10:31N 31°33' E 121°19'714.5
2017-Jul-23 10:01N 31°39' E 121°14'714.8
2017-Jul-23 09:30N 31°43' E 121°07'714.4
2017-Jul-23 09:01N 31°47' E 120°60'2711.1
2017-Jul-23 06:32N 32°01' E 120°32'311.7
2017-Jul-23 06:16N 32°02' E 120°28'414.5
2017-Jul-23 06:00N 32°01' E 120°24'713.9
2017-Jul-23 05:30N 31°57' E 120°17'713.7
2017-Jul-23 04:59N 31°56' E 120°09'3 6.0
2017-Jul-23 04:30N 31°57' E 120°06'0 0.0
2017-Jul-23 03:58N 31°57' E 120°06'0 0.0
2017-Jul-22 16:53N 31°57' E 120°06'0 0.0
2017-Jul-22 15:47N 31°57' E 120°06'0 0.0
2017-Jul-22 15:29N 31°57' E 120°06'0 0.0
2017-Jul-22 14:59N 31°57' E 120°06'0 0.0
2017-Jul-22 08:31N 31°57' E 120°06'0 0.0
2017-Jul-22 08:28N 31°57' E 120°06'2 3.8
2017-Jul-22 07:59N 31°56' E 120°08'2 3.9
2017-Jul-22 07:30N 31°56' E 120°10'2 4.2
2017-Jul-22 07:00N 31°56' E 120°13'3 5.7
2017-Jul-22 06:30N 31°57' E 120°16'2 4.7
2017-Jul-22 06:00N 31°58' E 120°18'2 4.8
2017-Jul-22 05:30N 31°59' E 120°21'4 8.5
2017-Jul-22 05:00N 32°02' E 120°24'4 7.7
2017-Jul-22 04:29N 32°04' E 120°28'3 7.2
2017-Jul-22 04:00N 32°04' E 120°32'4 7.3
2017-Jul-22 03:28N 32°01' E 120°36'24 7.3
2017-Jul-22 00:13N 31°47' E 120°58'2 9.2
2017-Jul-21 23:59N 31°47' E 121°00'6 9.5
2017-Jul-21 23:23N 31°44' E 121°06'410.2
2017-Jul-21 23:00N 31°42' E 121°10'5 9.5
2017-Jul-21 22:30N 31°39' E 121°14'5 9.9
2017-Jul-21 22:00N 31°35' E 121°18'2 3.8
2017-Jul-21 21:29N 31°35' E 121°21'0 0.0
2017-Jul-21 20:59N 31°35' E 121°21'0 0.0
2017-Jul-21 20:26N 31°35' E 121°21'0 0.0
2017-Jul-21 19:59N 31°35' E 121°21'0 0.0
2017-Jul-21 19:29N 31°35' E 121°21'0 0.0
2017-Jul-21 18:59N 31°35' E 121°21'0 0.0
2017-Jul-21 18:29N 31°35' E 121°21'0 0.0
2017-Jul-21 17:59N 31°35' E 121°21'0 0.0
2017-Jul-21 17:29N 31°35' E 121°21'0 0.2
2017-Jul-21 16:59N 31°35' E 121°20'0 0.0
2017-Jul-21 16:29N 31°35' E 121°20'0 0.0
2017-Jul-21 15:59N 31°35' E 121°20'0 0.0
2017-Jul-21 15:29N 31°35' E 121°20'0 0.0
2017-Jul-21 14:59N 31°35' E 121°20'0 0.0
2017-Jul-21 14:29N 31°35' E 121°20'0 0.0
2017-Jul-21 13:53N 31°35' E 121°20'0 0.0
2017-Jul-21 13:29N 31°35' E 121°20'0 0.0
2017-Jul-21 12:59N 31°35' E 121°20'0 0.2
2017-Jul-21 12:29N 31°35' E 121°21'0 0.1
2017-Jul-21 11:59N 31°35' E 121°21'0 0.0
2017-Jul-21 11:29N 31°35' E 121°21'0 0.0
2017-Jul-21 10:56N 31°35' E 121°21'0 0.0
2017-Jul-21 10:29N 31°35' E 121°21'0 0.0
2017-Jul-21 09:59N 31°35' E 121°21'0 0.0
2017-Jul-21 09:29N 31°35' E 121°21'0 0.0
2017-Jul-21 08:59N 31°35' E 121°21'0 0.0
2017-Jul-21 08:29N 31°35' E 121°21'0 0.0
2017-Jul-21 07:59N 31°35' E 121°21'0 0.0
2017-Jul-21 07:29N 31°35' E 121°21'0 0.0
2017-Jul-21 06:59N 31°35' E 121°21'0 0.0
2017-Jul-21 06:29N 31°35' E 121°21'1 3.0
2017-Jul-21 06:00N 31°33' E 121°21'510.9
2017-Jul-21 05:30N 31°30' E 121°26'510.3
2017-Jul-21 05:01N 31°26' E 121°30'4 7.3
2017-Jul-21 04:30N 31°24' E 121°34'510.4
2017-Jul-21 04:00N 31°21' E 121°39'5 9.7
2017-Jul-21 03:30N 31°18' E 121°43'713.1
2017-Jul-21 03:00N 31°13' E 121°48'713.7
2017-Jul-21 02:31N 31°09' E 121°54'611.8
2017-Jul-21 02:00N 31°06' E 121°60'611.8
2017-Jul-21 01:30N 31°04' E 122°06'511.0
2017-Jul-21 01:00N 31°03' E 122°13'5 9.7
2017-Jul-21 00:30N 31°03' E 122°18'510.1
2017-Jul-21 00:00N 31°02' E 122°24'611.3
2017-Jul-20 23:31N 31°00' E 122°30'611.1
2017-Jul-20 23:00N 31°02' E 122°37'2 3.4
2017-Jul-20 22:20N 31°04' E 122°38'0 0.0
2017-Jul-20 21:59N 31°04' E 122°38'0 0.2
2017-Jul-20 21:26N 31°04' E 122°38'0 0.1
2017-Jul-20 20:50N 31°04' E 122°38'0 0.1
2017-Jul-20 20:23N 31°04' E 122°38'0 0.1
2017-Jul-20 19:53N 31°04' E 122°38'0 0.0
2017-Jul-20 19:29N 31°04' E 122°38'0 0.0
2017-Jul-20 18:56N 31°04' E 122°38'0 0.0
2017-Jul-20 18:26N 31°04' E 122°38'0 0.0
2017-Jul-20 17:56N 31°04' E 122°38'0 0.0
2017-Jul-20 17:20N 31°04' E 122°38'0 0.0
2017-Jul-20 16:59N 31°04' E 122°38'0 0.0
2017-Jul-20 16:29N 31°04' E 122°38'0 0.0
2017-Jul-20 15:59N 31°04' E 122°38'0 0.0
2017-Jul-20 15:29N 31°04' E 122°38'0 0.0
2017-Jul-20 14:56N 31°04' E 122°38'0 0.1
2017-Jul-20 13:59N 31°04' E 122°38'0 0.0
2017-Jul-20 13:29N 31°04' E 122°38'0 0.1
2017-Jul-20 12:50N 31°04' E 122°38'0 0.0
2017-Jul-20 12:29N 31°04' E 122°38'0 0.0
2017-Jul-20 11:56N 31°04' E 122°38'0 0.1
2017-Jul-20 11:28N 31°04' E 122°38'0 0.0
2017-Jul-20 11:00N 31°04' E 122°38'0 0.0
2017-Jul-20 10:30N 31°04' E 122°38'0 0.0
2017-Jul-20 10:00N 31°04' E 122°38'0 0.4
2017-Jul-20 09:30N 31°04' E 122°38'4 8.4
2017-Jul-20 08:58N 31°04' E 122°43'714.6
2017-Jul-20 08:30N 31°03' E 122°51'714.1
2017-Jul-20 08:00N 31°03' E 122°60'714.0
2017-Jul-20 07:28N 31°03' E 123°08'713.9
2017-Jul-20 06:58N 31°02' E 123°17'713.8
2017-Jul-20 06:28N 31°02' E 123°25'913.5
2017-Jul-20 05:46N 31°02' E 123°36'  
Track history (hours):
 
Tides and Currents Weather Stations Pressure Air Temp Water Temp Dewpoint Dewpoint Depression Visibility Wind Speed Wind Dir Waves Ship Positions

Crane Gaia

Last reported at 2017-Jul-25 15:37 UTC. Time now 2017-Aug-19 20:35 UTC.
Position N 31°33' E 123°52'.
Warning: this ship's position is 25 days out of date.

Length 115 m; draft 5.4 m.

Type: Tanker. MMSI: 352461000.

Date/timePositionNaut miles runAvg speedWind from/ knotsBaromVisibWave heightAir tempDewpointWater temp
2017-Jul-25 15:37N 31°33' E 123°52'212.9
2017-Jul-25 15:30N 31°32' E 123°50'612.5
2017-Jul-25 15:00N 31°29' E 123°44'1212.0
2017-Jul-25 14:00N 31°22' E 123°32'712.3
2017-Jul-25 13:28N 31°18' E 123°26'511.9
2017-Jul-25 13:00N 31°15' E 123°21'612.0
2017-Jul-25 12:30N 31°12' E 123°15'612.5
2017-Jul-25 12:00N 31°08' E 123°09'713.1
2017-Jul-25 11:30N 31°04' E 123°03'613.0
2017-Jul-25 11:00N 31°01' E 122°57'612.8
2017-Jul-25 10:30N 30°57' E 122°51'713.7
2017-Jul-25 10:00N 30°55' E 122°43'713.3
2017-Jul-25 09:30N 30°53' E 122°36'714.7
2017-Jul-25 09:00N 30°51' E 122°27'1113.2
2017-Jul-25 08:11N 30°45' E 122°17'1412.9
2017-Jul-25 07:04N 30°32' E 122°09'415.5
2017-Jul-25 06:50N 30°32' E 122°05'515.0
2017-Jul-25 06:30N 30°31' E 121°59'1014.0
2017-Jul-25 05:49N 30°30' E 121°48'412.9
2017-Jul-25 05:28N 30°29' E 121°43'611.4
2017-Jul-25 04:59N 30°30' E 121°37'510.5
2017-Jul-25 04:28N 30°32' E 121°31'15 1.8
2017-Jul-24 20:15N 30°46' E 121°27'0 0.0
2017-Jul-24 19:45N 30°46' E 121°27'0 0.0
2017-Jul-24 19:21N 30°46' E 121°27'0 0.0
2017-Jul-24 18:45N 30°46' E 121°27'0 0.0
2017-Jul-24 18:18N 30°46' E 121°27'0 0.0
2017-Jul-24 17:57N 30°46' E 121°27'0 0.0
2017-Jul-24 16:21N 30°46' E 121°27'1 0.1
2017-Jul-24 01:13N 30°45' E 121°27'310.2
2017-Jul-24 00:57N 30°43' E 121°28'510.9
2017-Jul-24 00:29N 30°39' E 121°23'4 8.1
2017-Jul-24 00:00N 30°36' E 121°21'5 9.8
2017-Jul-23 23:30N 30°33' E 121°26'5 9.8
2017-Jul-23 23:00N 30°32' E 121°31'510.6
2017-Jul-23 22:30N 30°31' E 121°37'611.1
2017-Jul-23 22:00N 30°30' E 121°44'511.1
2017-Jul-23 21:30N 30°31' E 121°50'510.4
2017-Jul-23 21:00N 30°31' E 121°56'510.1
2017-Jul-23 20:28N 30°32' E 122°02'5 9.7
2017-Jul-23 20:00N 30°33' E 122°07'5 9.0
2017-Jul-23 19:28N 30°35' E 122°12'612.4
2017-Jul-23 19:00N 30°41' E 122°14'612.4
2017-Jul-23 18:30N 30°46' E 122°17'611.2
2017-Jul-23 18:00N 30°51' E 122°21'611.0
2017-Jul-23 17:30N 30°53' E 122°27'510.5
2017-Jul-23 17:00N 30°56' E 122°31'510.3
2017-Jul-23 16:30N 31°00' E 122°27'713.8
2017-Jul-23 16:00N 31°02' E 122°19'612.4
2017-Jul-23 15:30N 31°03' E 122°12'611.8
2017-Jul-23 15:00N 31°04' E 122°06'510.5
2017-Jul-23 14:30N 31°05' E 121°60'5 9.8
2017-Jul-23 14:00N 31°08' E 121°55'510.1
2017-Jul-23 13:30N 31°11' E 121°50'611.6
2017-Jul-23 13:00N 31°15' E 121°46'612.4
2017-Jul-23 12:30N 31°20' E 121°41'611.6
2017-Jul-23 12:00N 31°23' E 121°35'611.3
2017-Jul-23 11:30N 31°26' E 121°30'611.0
2017-Jul-23 11:00N 31°30' E 121°25'611.6
2017-Jul-23 10:31N 31°33' E 121°19'714.5
2017-Jul-23 10:01N 31°39' E 121°14'714.8
2017-Jul-23 09:30N 31°43' E 121°07'714.4
2017-Jul-23 09:01N 31°47' E 120°60'2711.1
2017-Jul-23 06:32N 32°01' E 120°32'311.7
2017-Jul-23 06:16N 32°02' E 120°28'414.5
2017-Jul-23 06:00N 32°01' E 120°24'713.9
2017-Jul-23 05:30N 31°57' E 120°17'713.7
2017-Jul-23 04:59N 31°56' E 120°09'3 6.0
2017-Jul-23 04:30N 31°57' E 120°06'0 0.0
2017-Jul-23 03:58N 31°57' E 120°06'0 0.0
2017-Jul-22 16:53N 31°57' E 120°06'0 0.0
2017-Jul-22 15:47N 31°57' E 120°06'0 0.0
2017-Jul-22 15:29N 31°57' E 120°06'0 0.0
2017-Jul-22 14:59N 31°57' E 120°06'0 0.0
2017-Jul-22 08:31N 31°57' E 120°06'0 0.0
2017-Jul-22 08:28N 31°57' E 120°06'2 3.8
2017-Jul-22 07:59N 31°56' E 120°08'2 3.9
2017-Jul-22 07:30N 31°56' E 120°10'2 4.2
2017-Jul-22 07:00N 31°56' E 120°13'3 5.7
2017-Jul-22 06:30N 31°57' E 120°16'2 4.7
2017-Jul-22 06:00N 31°58' E 120°18'2 4.8
2017-Jul-22 05:30N 31°59' E 120°21'4 8.5
2017-Jul-22 05:00N 32°02' E 120°24'4 7.7
2017-Jul-22 04:29N 32°04' E 120°28'3 7.2
2017-Jul-22 04:00N 32°04' E 120°32'4 7.3
2017-Jul-22 03:28N 32°01' E 120°36'24 7.3
2017-Jul-22 00:13N 31°47' E 120°58'2 9.2
2017-Jul-21 23:59N 31°47' E 121°00'6 9.5
2017-Jul-21 23:23N 31°44' E 121°06'410.2
2017-Jul-21 23:00N 31°42' E 121°10'5 9.5
2017-Jul-21 22:30N 31°39' E 121°14'5 9.9
2017-Jul-21 22:00N 31°35' E 121°18'2 3.8
2017-Jul-21 21:29N 31°35' E 121°21'0 0.0
2017-Jul-21 20:59N 31°35' E 121°21'0 0.0
2017-Jul-21 20:26N 31°35' E 121°21'0 0.0
2017-Jul-21 19:59N 31°35' E 121°21'0 0.0
2017-Jul-21 19:29N 31°35' E 121°21'0 0.0
2017-Jul-21 18:59N 31°35' E 121°21'0 0.0
2017-Jul-21 18:29N 31°35' E 121°21'0 0.0
2017-Jul-21 17:59N 31°35' E 121°21'0 0.0
2017-Jul-21 17:29N 31°35' E 121°21'0 0.2
2017-Jul-21 16:59N 31°35' E 121°20'0 0.0
2017-Jul-21 16:29N 31°35' E 121°20'0 0.0
2017-Jul-21 15:59N 31°35' E 121°20'0 0.0
2017-Jul-21 15:29N 31°35' E 121°20'0 0.0
2017-Jul-21 14:59N 31°35' E 121°20'0 0.0
2017-Jul-21 14:29N 31°35' E 121°20'0 0.0
2017-Jul-21 13:53N 31°35' E 121°20'0 0.0
2017-Jul-21 13:29N 31°35' E 121°20'0 0.0
2017-Jul-21 12:59N 31°35' E 121°20'0 0.2
2017-Jul-21 12:29N 31°35' E 121°21'0 0.1
2017-Jul-21 11:59N 31°35' E 121°21'0 0.0
2017-Jul-21 11:29N 31°35' E 121°21'0 0.0
2017-Jul-21 10:56N 31°35' E 121°21'0 0.0
2017-Jul-21 10:29N 31°35' E 121°21'0 0.0
2017-Jul-21 09:59N 31°35' E 121°21'0 0.0
2017-Jul-21 09:29N 31°35' E 121°21'0 0.0
2017-Jul-21 08:59N 31°35' E 121°21'0 0.0
2017-Jul-21 08:29N 31°35' E 121°21'0 0.0
2017-Jul-21 07:59N 31°35' E 121°21'0 0.0
2017-Jul-21 07:29N 31°35' E 121°21'0 0.0
2017-Jul-21 06:59N 31°35' E 121°21'0 0.0
2017-Jul-21 06:29N 31°35' E 121°21'1 3.0
2017-Jul-21 06:00N 31°33' E 121°21'510.9
2017-Jul-21 05:30N 31°30' E 121°26'510.3
2017-Jul-21 05:01N 31°26' E 121°30'4 7.3
2017-Jul-21 04:30N 31°24' E 121°34'510.4
2017-Jul-21 04:00N 31°21' E 121°39'5 9.7
2017-Jul-21 03:30N 31°18' E 121°43'713.1
2017-Jul-21 03:00N 31°13' E 121°48'713.7
2017-Jul-21 02:31N 31°09' E 121°54'611.8
2017-Jul-21 02:00N 31°06' E 121°60'611.8
2017-Jul-21 01:30N 31°04' E 122°06'511.0
2017-Jul-21 01:00N 31°03' E 122°13'5 9.7
2017-Jul-21 00:30N 31°03' E 122°18'510.1
2017-Jul-21 00:00N 31°02' E 122°24'611.3
2017-Jul-20 23:31N 31°00' E 122°30'611.1
2017-Jul-20 23:00N 31°02' E 122°37'2 3.4
2017-Jul-20 22:20N 31°04' E 122°38'0 0.0
2017-Jul-20 21:59N 31°04' E 122°38'0 0.2
2017-Jul-20 21:26N 31°04' E 122°38'0 0.1
2017-Jul-20 20:50N 31°04' E 122°38'0 0.1
2017-Jul-20 20:23N 31°04' E 122°38'0 0.1
2017-Jul-20 19:53N 31°04' E 122°38'0 0.0
2017-Jul-20 19:29N 31°04' E 122°38'0 0.0
2017-Jul-20 18:56N 31°04' E 122°38'0 0.0
2017-Jul-20 18:26N 31°04' E 122°38'0 0.0
2017-Jul-20 17:56N 31°04' E 122°38'0 0.0
2017-Jul-20 17:20N 31°04' E 122°38'0 0.0
2017-Jul-20 16:59N 31°04' E 122°38'0 0.0
2017-Jul-20 16:29N 31°04' E 122°38'0 0.0
2017-Jul-20 15:59N 31°04' E 122°38'0 0.0
2017-Jul-20 15:29N 31°04' E 122°38'0 0.0
2017-Jul-20 14:56N 31°04' E 122°38'0 0.1
2017-Jul-20 13:59N 31°04' E 122°38'0 0.0
2017-Jul-20 13:29N 31°04' E 122°38'0 0.1
2017-Jul-20 12:50N 31°04' E 122°38'0 0.0
2017-Jul-20 12:29N 31°04' E 122°38'0 0.0
2017-Jul-20 11:56N 31°04' E 122°38'0 0.1
2017-Jul-20 11:28N 31°04' E 122°38'0 0.0
2017-Jul-20 11:00N 31°04' E 122°38'0 0.0
2017-Jul-20 10:30N 31°04' E 122°38'0 0.0
2017-Jul-20 10:00N 31°04' E 122°38'0 0.4
2017-Jul-20 09:30N 31°04' E 122°38'4 8.4
2017-Jul-20 08:58N 31°04' E 122°43'714.6
2017-Jul-20 08:30N 31°03' E 122°51'714.1
2017-Jul-20 08:00N 31°03' E 122°60'714.0
2017-Jul-20 07:28N 31°03' E 123°08'713.9
2017-Jul-20 06:58N 31°02' E 123°17'713.8
2017-Jul-20 06:28N 31°02' E 123°25'913.5
2017-Jul-20 05:46N 31°02' E 123°36'  

Dump ship's entire track history